createdAt,value
2023-10-23T00:00:24.606Z,62.27
2023-10-23T00:03:13.806Z,61.71
2023-10-23T00:05:42.961Z,61.63
2023-10-23T00:08:11.849Z,61.64
2023-10-23T00:10:41.016Z,62.21
2023-10-23T00:13:10.466Z,62.06
2023-10-23T00:15:38.932Z,61.11
2023-10-23T00:18:07.424Z,62.04
2023-10-23T00:20:36.265Z,62.07
2023-10-23T00:23:04.765Z,62.55
2023-10-23T00:25:34.160Z,64.08
2023-10-23T00:28:04.092Z,63.42
2023-10-23T00:30:37.436Z,62.91
2023-10-23T00:33:06.042Z,61.67
2023-10-23T00:35:35.660Z,62.19
2023-10-23T00:38:04.514Z,61.87
2023-10-23T00:40:34.160Z,61.42
2023-10-23T00:43:20.106Z,61.51
2023-10-23T00:45:52.840Z,60.74
2023-10-23T00:48:22.971Z,60.58
2023-10-23T00:50:52.801Z,60.71
2023-10-23T00:53:29.690Z,61.23
2023-10-23T00:56:00.056Z,61.21
2023-10-23T00:58:29.123Z,61.42
2023-10-23T01:00:59.674Z,61.14
2023-10-23T01:03:28.428Z,61.14
2023-10-23T01:05:57.576Z,61.29
2023-10-23T01:08:26.677Z,61.55
2023-10-23T01:10:57.163Z,61.13
2023-10-23T01:13:27.581Z,61.11
2023-10-23T01:15:56.247Z,61.31
2023-10-23T01:18:24.714Z,61.36
2023-10-23T01:20:53.387Z,61.41
2023-10-23T01:23:27.259Z,61.01
2023-10-23T01:25:56.127Z,60.61
2023-10-23T01:28:24.602Z,60.42
2023-10-23T01:30:52.965Z,60.25
2023-10-23T01:33:21.563Z,60.14
2023-10-23T01:35:50.110Z,60.84
2023-10-23T01:38:19.715Z,60.87
2023-10-23T01:40:48.396Z,61.36
2023-10-23T01:43:18.050Z,61.01
2023-10-23T01:45:46.474Z,61.22
2023-10-23T01:48:15.273Z,61.39
2023-10-23T01:50:43.882Z,61.10
2023-10-23T01:53:12.352Z,61.37
2023-10-23T01:55:40.931Z,61.04
2023-10-23T01:58:09.542Z,60.80
2023-10-23T02:00:38.068Z,60.87
2023-10-23T02:03:06.984Z,60.63
2023-10-23T02:05:36.078Z,60.56
2023-10-23T02:08:05.693Z,60.23
2023-10-23T02:10:34.036Z,60.21
2023-10-23T02:13:03.290Z,60.25
2023-10-23T02:15:31.889Z,60.18
2023-10-23T02:18:00.378Z,60.39
2023-10-23T02:20:30.240Z,60.61
2023-10-23T02:22:59.055Z,61.20
2023-10-23T02:25:27.617Z,61.35
2023-10-23T02:27:58.196Z,61.75
2023-10-23T02:30:27.056Z,61.73
2023-10-23T02:32:55.777Z,61.96
2023-10-23T02:35:24.235Z,62.30
2023-10-23T02:37:53.355Z,61.44
2023-10-23T02:40:23.372Z,61.38
2023-10-23T02:42:52.043Z,61.83
2023-10-23T02:45:20.722Z,61.61
2023-10-23T02:47:49.520Z,62.30
2023-10-23T02:50:18.206Z,61.97
2023-10-23T02:52:47.051Z,62.31
2023-10-23T02:55:16.082Z,62.81
2023-10-23T02:57:44.777Z,62.56
2023-10-23T03:00:16.805Z,61.81
2023-10-23T03:02:45.960Z,61.47
2023-10-23T03:05:15.737Z,62.15
2023-10-23T03:07:44.697Z,61.74
2023-10-23T03:10:13.374Z,62.82
2023-10-23T03:12:41.906Z,62.22
2023-10-23T03:15:10.996Z,62.30
2023-10-23T03:17:40.179Z,62.98
2023-10-23T03:20:10.302Z,62.58
2023-10-23T03:22:39.469Z,62.55
2023-10-23T03:25:09.574Z,62.77
2023-10-23T03:27:38.202Z,63.63
2023-10-23T03:30:07.755Z,64.07
2023-10-23T03:32:36.735Z,63.95
2023-10-23T03:35:06.032Z,63.98
2023-10-23T03:37:34.499Z,63.91
2023-10-23T03:40:02.899Z,63.79
2023-10-23T03:42:32.549Z,63.45
2023-10-23T03:45:02.440Z,64.41
2023-10-23T03:47:30.965Z,65.19
2023-10-23T03:49:59.388Z,66.22
2023-10-23T03:52:28.302Z,64.98
2023-10-23T03:54:56.731Z,65.56
2023-10-23T03:57:25.384Z,65.33
2023-10-23T03:59:54.793Z,65.77
2023-10-23T04:02:23.034Z,64.55
2023-10-23T04:04:51.540Z,64.36
2023-10-23T04:07:20.002Z,66.05
2023-10-23T04:09:48.424Z,65.45
2023-10-23T04:12:16.992Z,65.39
2023-10-23T04:14:48.674Z,65.01
2023-10-23T04:17:17.210Z,64.50
2023-10-23T04:19:49.654Z,64.10
2023-10-23T04:22:17.959Z,63.54
2023-10-23T04:24:48.860Z,63.09
2023-10-23T04:27:17.597Z,63.09
2023-10-23T04:29:46.373Z,62.92
2023-10-23T04:32:15.075Z,63.64
2023-10-23T04:34:43.676Z,64.27
2023-10-23T04:37:12.240Z,65.47
2023-10-23T04:39:41.174Z,65.25
2023-10-23T04:42:09.709Z,64.73
2023-10-23T04:44:38.186Z,64.37
2023-10-23T04:47:06.870Z,64.92
2023-10-23T04:49:35.248Z,64.75
2023-10-23T04:52:04.320Z,64.50
2023-10-23T04:54:32.954Z,65.64
2023-10-23T04:57:01.614Z,65.41
2023-10-23T04:59:30.211Z,65.32
2023-10-23T05:01:58.917Z,64.99
2023-10-23T05:04:34.296Z,64.73
2023-10-23T05:07:03.519Z,64.73
2023-10-23T05:09:33.401Z,64.83
2023-10-23T05:12:02.887Z,64.92
2023-10-23T05:14:38.783Z,64.86
2023-10-23T05:17:09.820Z,64.70
2023-10-23T05:19:38.829Z,64.94
2023-10-23T05:22:07.321Z,64.91
2023-10-23T05:24:35.624Z,65.16
2023-10-23T05:27:04.589Z,65.19
2023-10-23T05:29:33.259Z,65.43
2023-10-23T05:32:01.751Z,65.51
2023-10-23T05:34:30.968Z,65.74
2023-10-23T05:36:59.393Z,65.47
2023-10-23T05:39:28.496Z,65.44
2023-10-23T05:41:57.447Z,65.53
2023-10-23T05:44:29.524Z,65.55
2023-10-23T05:46:59.598Z,65.53
2023-10-23T05:49:29.442Z,65.22
2023-10-23T05:51:58.340Z,64.82
2023-10-23T05:54:27.002Z,64.79
2023-10-23T05:56:55.153Z,65.37
2023-10-23T05:59:23.572Z,65.24
2023-10-23T06:01:52.281Z,65.45
2023-10-23T06:04:20.676Z,65.36
2023-10-23T06:06:49.421Z,65.07
2023-10-23T06:09:18.119Z,64.78
2023-10-23T06:11:46.999Z,64.59
2023-10-23T06:14:15.178Z,64.63
2023-10-23T06:16:43.636Z,64.43
2023-10-23T06:19:12.231Z,64.46
2023-10-23T06:21:40.621Z,64.49
2023-10-23T06:24:09.286Z,64.16
2023-10-23T06:26:37.561Z,64.60
2023-10-23T06:29:06.324Z,64.62
2023-10-23T06:31:34.904Z,64.54
2023-10-23T06:34:03.408Z,64.44
2023-10-23T06:36:33.307Z,64.47
2023-10-23T06:39:01.884Z,64.57
2023-10-23T06:41:31.810Z,64.66
2023-10-23T06:44:00.293Z,64.47
2023-10-23T06:46:28.962Z,64.62
2023-10-23T06:48:57.958Z,64.77
2023-10-23T06:51:26.429Z,64.79
2023-10-23T06:53:55.161Z,64.64
2023-10-23T06:56:23.741Z,64.51
2023-10-23T06:58:52.280Z,64.09
2023-10-23T07:01:30.391Z,64.42
2023-10-23T07:04:07.859Z,64.49
2023-10-23T07:06:37.195Z,64.58
2023-10-23T07:09:06.132Z,64.48
2023-10-23T07:11:34.569Z,64.82
2023-10-23T07:14:03.170Z,64.99
2023-10-23T07:16:31.869Z,65.05
2023-10-23T07:19:00.461Z,65.31
2023-10-23T07:21:28.798Z,65.63
2023-10-23T07:27:40.475Z,66.10
2023-10-23T07:30:09.421Z,66.33
2023-10-23T07:32:38.010Z,66.38
2023-10-23T07:35:09.405Z,66.25
2023-10-23T07:37:39.452Z,65.99
2023-10-23T07:40:08.687Z,65.63
2023-10-23T07:42:37.071Z,65.22
2023-10-23T07:45:06.767Z,65.81
2023-10-23T07:47:35.276Z,65.59
2023-10-23T07:50:06.095Z,65.85
2023-10-23T07:52:34.236Z,65.90
2023-10-23T07:55:02.932Z,65.71
2023-10-23T07:57:31.484Z,65.79
2023-10-23T08:00:00.071Z,65.47
2023-10-23T08:02:28.734Z,65.13
2023-10-23T08:04:57.421Z,64.94
2023-10-23T08:07:26.326Z,64.84
2023-10-23T08:09:55.043Z,65.26
2023-10-23T08:12:23.326Z,64.78
2023-10-23T08:14:52.473Z,64.40
2023-10-23T08:17:41.396Z,64.42
2023-10-23T08:20:10.984Z,63.58
2023-10-23T08:22:39.552Z,63.06
2023-10-23T08:25:08.663Z,63.21
2023-10-23T08:27:37.043Z,62.68
2023-10-23T08:30:06.413Z,62.53
2023-10-23T08:32:49.637Z,62.23
2023-10-23T08:35:21.428Z,61.95
2023-10-23T08:37:49.947Z,61.62
2023-10-23T08:40:18.703Z,61.20
2023-10-23T08:42:47.928Z,61.07
2023-10-23T08:45:17.895Z,60.95
2023-10-23T08:47:47.856Z,60.37
2023-10-23T08:50:17.200Z,59.68
2023-10-23T08:52:50.869Z,60.35
2023-10-23T08:55:21.123Z,59.88
2023-10-23T08:57:54.402Z,59.74
2023-10-23T09:00:26.391Z,59.69
2023-10-23T09:02:56.266Z,59.48
2023-10-23T09:26:29.419Z,54.86
2023-10-23T09:28:58.369Z,54.65
2023-10-23T09:31:25.607Z,52.19
2023-10-23T09:33:52.898Z,51.93
2023-10-23T09:36:21.386Z,50.56
2023-10-23T09:38:59.948Z,50.75
2023-10-23T09:41:29.351Z,50.54
2023-10-23T09:43:58.214Z,50.17
2023-10-23T09:46:29.521Z,49.27
2023-10-23T09:49:01.428Z,49.70
2023-10-23T09:51:32.762Z,49.33
2023-10-23T09:54:07.371Z,49.13
2023-10-23T09:56:35.723Z,49.69
2023-10-23T09:59:08.708Z,49.98
2023-10-23T10:01:44.096Z,49.23
2023-10-23T10:04:24.079Z,49.41
2023-10-23T10:07:06.394Z,49.56
2023-10-23T10:09:38.503Z,49.27
2023-10-23T10:12:11.173Z,49.62
2023-10-23T10:14:42.381Z,49.39
2023-10-23T10:17:11.958Z,49.40
2023-10-23T10:19:41.365Z,49.61
2023-10-23T10:22:20.996Z,49.40
2023-10-23T10:24:49.673Z,49.72
2023-10-23T10:27:17.442Z,49.55
2023-10-23T10:29:45.950Z,48.87
2023-10-23T10:32:15.594Z,49.31
2023-10-23T10:34:46.640Z,48.29
2023-10-23T10:39:53.333Z,48.58
2023-10-23T10:42:29.877Z,48.08
2023-10-23T10:45:08.606Z,47.15
2023-10-23T10:47:42.406Z,47.17
2023-10-23T10:50:11.219Z,47.53
2023-10-23T10:52:40.222Z,47.64
2023-10-23T10:55:09.999Z,47.08
2023-10-23T10:57:47.535Z,46.73
2023-10-23T11:00:15.887Z,46.60
2023-10-23T11:02:43.337Z,45.64
2023-10-23T11:05:13.480Z,46.75
2023-10-23T11:07:41.675Z,45.97
2023-10-23T11:10:10.246Z,46.09
2023-10-23T11:12:39.678Z,45.82
2023-10-23T11:15:07.708Z,46.15
2023-10-23T11:17:37.244Z,45.06
2023-10-23T11:20:09.279Z,44.60
2023-10-23T11:22:39.289Z,44.56
2023-10-23T11:25:09.792Z,44.97
2023-10-23T11:27:37.997Z,44.78
2023-10-23T11:30:07.085Z,45.46
2023-10-23T11:32:35.101Z,44.55
2023-10-23T11:35:05.828Z,44.49
2023-10-23T11:37:38.049Z,44.42
2023-10-23T11:40:07.647Z,44.62
2023-10-23T11:42:50.278Z,43.40
2023-10-23T11:45:18.435Z,43.65
2023-10-23T11:47:46.757Z,44.59
2023-10-23T11:50:14.944Z,44.47
2023-10-23T11:52:48.492Z,44.56
2023-10-23T11:55:17.108Z,44.94
2023-10-23T11:57:51.329Z,45.06
2023-10-23T12:00:21.178Z,43.96
2023-10-23T12:02:48.992Z,43.87
2023-10-23T12:05:18.980Z,43.98
2023-10-23T12:07:48.116Z,44.10
2023-10-23T12:10:19.798Z,43.88
2023-10-23T12:12:48.367Z,43.87
2023-10-23T12:15:16.395Z,43.50
2023-10-23T12:17:43.777Z,43.92
2023-10-23T12:20:12.591Z,44.12
2023-10-23T12:22:45.368Z,43.40
2023-10-23T12:25:14.172Z,42.36
2023-10-23T12:27:42.079Z,42.15
2023-10-23T12:30:15.039Z,43.18
2023-10-23T12:33:16.249Z,41.89
2023-10-23T12:35:31.032Z,42.28
2023-10-23T12:37:58.942Z,41.00
2023-10-23T12:40:30.264Z,41.77
2023-10-23T12:43:00.710Z,41.67
2023-10-23T12:45:27.874Z,42.19
2023-10-23T12:47:55.049Z,42.36
2023-10-23T12:50:22.126Z,42.66
2023-10-23T12:52:49.681Z,42.00
2023-10-23T21:26:35.015Z,65.93
2023-10-23T21:29:20.193Z,66.52
2023-10-23T21:31:50.679Z,67.60
2023-10-23T21:34:20.608Z,66.58
2023-10-23T21:36:49.442Z,66.89
2023-10-23T21:39:17.810Z,66.63
2023-10-23T21:41:47.135Z,66.98
2023-10-23T21:44:15.505Z,66.16
2023-10-23T21:46:43.932Z,65.12
2023-10-23T21:49:12.839Z,65.24
2023-10-23T21:51:42.390Z,65.45
2023-10-23T21:54:11.711Z,66.81
2023-10-23T21:57:21.049Z,66.33
2023-10-23T21:59:30.030Z,66.98
2023-10-23T22:01:58.910Z,68.40
2023-10-23T22:04:27.957Z,67.08
2023-10-23T22:06:57.233Z,66.95
2023-10-23T22:09:27.246Z,67.97
2023-10-23T22:11:56.211Z,68.25
2023-10-23T22:14:25.113Z,68.49
2023-10-23T22:16:53.719Z,68.39
2023-10-23T22:19:22.396Z,68.53
2023-10-23T22:21:50.812Z,68.32
2023-10-23T22:24:19.228Z,69.31
2023-10-23T22:26:48.284Z,69.33
2023-10-23T22:29:16.823Z,69.41
2023-10-23T22:31:45.646Z,69.77
2023-10-23T22:34:14.382Z,69.71
2023-10-23T22:36:43.013Z,71.01
2023-10-23T22:39:12.074Z,69.84
2023-10-23T22:41:41.692Z,70.35
2023-10-23T22:44:11.191Z,70.49
2023-10-23T22:46:39.484Z,70.81
2023-10-23T22:49:08.220Z,71.14
2023-10-23T22:51:37.708Z,69.12
2023-10-23T22:54:07.266Z,70.58
2023-10-23T22:56:37.382Z,70.55
2023-10-23T22:59:06.581Z,70.01
2023-10-23T23:01:36.449Z,69.49
2023-10-23T23:04:05.690Z,69.48
2023-10-23T23:06:35.449Z,69.98
2023-10-23T23:09:05.286Z,70.23
2023-10-23T23:11:34.247Z,70.58
2023-10-23T23:14:03.620Z,71.72
2023-10-23T23:16:37.225Z,71.78
2023-10-23T23:19:11.954Z,70.57
2023-10-23T23:21:46.642Z,71.61
2023-10-23T23:24:15.233Z,72.12
2023-10-23T23:26:43.839Z,71.41
2023-10-23T23:29:12.224Z,71.34
2023-10-23T23:31:40.995Z,71.99
2023-10-23T23:34:09.773Z,72.90
2023-10-23T23:36:38.578Z,74.69
2023-10-23T23:39:06.989Z,73.73
2023-10-23T23:41:35.340Z,72.73
2023-10-23T23:44:04.062Z,70.76
2023-10-23T23:46:32.380Z,71.75
2023-10-23T23:49:01.076Z,73.22
2023-10-23T23:51:29.859Z,73.00
2023-10-23T23:53:58.459Z,73.01
2023-10-23T23:56:27.026Z,72.41
2023-10-23T23:58:55.485Z,72.10
